createdAt,value
2022-08-20T00:02:14.227Z,12.70
2022-08-20T00:04:44.145Z,13.13
2022-08-20T00:07:12.505Z,14.10
2022-08-20T00:09:41.700Z,14.27
2022-08-20T00:12:10.304Z,14.40
2022-08-20T00:14:38.829Z,15.20
2022-08-20T00:17:07.163Z,15.13
2022-08-20T00:19:35.481Z,15.70
2022-08-20T00:22:05.024Z,15.77
2022-08-20T00:24:33.229Z,16.53
2022-08-20T00:27:01.893Z,16.10
2022-08-20T00:29:31.520Z,17.47
2022-08-20T00:31:59.775Z,16.87
2022-08-20T00:34:28.106Z,17.17
2022-08-20T00:36:56.291Z,16.90
2022-08-20T00:39:26.199Z,16.63
2022-08-20T00:41:54.520Z,16.63
2022-08-20T00:44:23.146Z,17.70
2022-08-20T00:46:51.620Z,18.60
2022-08-20T00:49:22.272Z,18.70
2022-08-20T00:51:54.231Z,17.37
2022-08-20T00:54:26.644Z,18.33
2022-08-20T00:56:58.110Z,17.77
2022-08-20T00:59:28.529Z,18.30
2022-08-20T01:01:57.718Z,19.27
2022-08-20T01:04:26.872Z,18.43
2022-08-20T01:06:55.556Z,19.37
2022-08-20T01:09:49.407Z,19.73
2022-08-20T01:12:13.730Z,18.63
2022-08-20T01:14:46.046Z,18.83
2022-08-20T01:17:17.627Z,17.83
2022-08-20T01:19:49.094Z,17.53
2022-08-20T01:22:39.783Z,18.40
2022-08-20T01:25:11.812Z,16.60
2022-08-20T01:27:42.935Z,16.40
2022-08-20T01:30:12.108Z,16.23
2022-08-20T01:32:40.665Z,17.43
2022-08-20T01:35:10.161Z,16.40
2022-08-20T01:37:38.429Z,16.53
2022-08-20T01:40:09.252Z,16.50
2022-08-20T01:42:57.147Z,16.40
2022-08-20T01:45:31.003Z,16.37
2022-08-20T01:47:59.922Z,16.13
2022-08-20T01:50:30.851Z,15.67
2022-08-20T01:53:04.521Z,15.90
2022-08-20T01:55:32.893Z,16.20
2022-08-20T01:58:01.227Z,16.27
2022-08-20T02:00:32.663Z,16.57
2022-08-20T02:03:00.897Z,16.33
2022-08-20T02:05:30.751Z,16.20
2022-08-20T02:07:59.142Z,16.13
2022-08-20T02:10:27.570Z,16.23
2022-08-20T02:13:00.109Z,14.77
2022-08-20T02:15:34.464Z,15.80
2022-08-20T02:18:05.463Z,15.83
2022-08-20T02:20:36.458Z,15.03
2022-08-20T02:23:04.833Z,14.63
2022-08-20T02:25:34.198Z,15.20
2022-08-20T02:28:03.366Z,15.40
2022-08-20T02:30:34.471Z,14.17
2022-08-20T02:33:03.389Z,14.20
2022-08-20T02:35:32.205Z,15.40
2022-08-20T02:38:02.088Z,13.70
2022-08-20T02:40:31.449Z,13.63
2022-08-20T02:42:59.940Z,14.43
2022-08-20T02:45:28.267Z,14.27
2022-08-20T02:47:59.112Z,13.43
2022-08-20T02:50:27.657Z,12.87
2022-08-20T02:52:55.968Z,13.87
2022-08-20T02:55:28.027Z,13.63
2022-08-20T02:57:58.599Z,13.13
2022-08-20T03:00:27.344Z,11.73
2022-08-20T03:02:55.602Z,11.27
2022-08-20T03:05:25.143Z,11.53
2022-08-20T03:07:56.668Z,10.63
2022-08-20T03:10:25.811Z,9.07
2022-08-20T03:12:54.013Z,8.47
2022-08-20T03:15:22.235Z,8.23
2022-08-20T03:17:50.481Z,8.53
2022-08-20T03:20:23.804Z,8.30
2022-08-20T03:22:53.698Z,7.87
2022-08-20T03:25:22.327Z,8.70
2022-08-20T03:27:54.032Z,9.37
2022-08-20T03:30:22.961Z,8.67
2022-08-20T03:32:51.354Z,9.13
2022-08-20T03:35:20.106Z,8.77
2022-08-20T03:37:48.759Z,8.43
2022-08-20T03:40:19.581Z,8.10
2022-08-20T03:42:47.845Z,5.60
2022-08-20T03:45:20.321Z,4.53
2022-08-20T03:47:48.893Z,4.93
2022-08-20T03:50:23.012Z,4.60
2022-08-20T03:52:51.790Z,3.60
2022-08-20T03:55:21.983Z,3.57
2022-08-20T03:57:52.180Z,3.70
2022-08-20T04:00:21.879Z,3.20
2022-08-20T04:02:50.500Z,3.07
2022-08-20T04:05:19.051Z,3.37
2022-08-20T04:07:47.396Z,3.10
2022-08-20T04:10:15.707Z,3.40
2022-08-20T04:12:48.819Z,3.03
2022-08-20T04:15:21.659Z,3.37
2022-08-20T04:17:50.788Z,3.27
2022-08-20T04:20:23.289Z,3.50
2022-08-20T04:22:59.157Z,3.40
2022-08-20T04:25:29.518Z,3.70
2022-08-20T04:27:59.775Z,3.63
2022-08-20T04:30:28.535Z,3.17
2022-08-20T04:32:56.873Z,3.63
2022-08-20T04:35:25.599Z,3.23
2022-08-20T04:37:59.328Z,3.60
2022-08-20T04:40:44.603Z,3.50
2022-08-20T04:43:15.018Z,3.53
2022-08-20T04:45:43.323Z,3.60
2022-08-20T04:48:14.999Z,3.33
2022-08-20T04:50:44.262Z,3.43
2022-08-20T04:53:13.264Z,3.10
2022-08-20T04:55:43.010Z,3.43
2022-08-20T04:58:14.769Z,3.40
2022-08-20T05:00:43.211Z,3.30
2022-08-20T05:03:12.212Z,3.17
2022-08-20T05:05:40.530Z,3.20
2022-08-20T05:08:18.779Z,3.30
2022-08-20T05:10:48.718Z,3.40
2022-08-20T05:13:18.431Z,3.40
2022-08-20T05:15:48.612Z,3.60
2022-08-20T05:18:18.644Z,3.43
2022-08-20T05:20:47.166Z,3.23
2022-08-20T05:23:16.198Z,3.30
2022-08-20T05:25:45.365Z,3.33
2022-08-20T05:28:14.726Z,3.13
2022-08-20T05:30:45.584Z,3.37
2022-08-20T05:33:17.910Z,3.63
2022-08-20T05:35:47.200Z,4.03
2022-08-20T05:38:16.752Z,3.67
2022-08-20T05:40:44.928Z,3.40
2022-08-20T05:43:13.443Z,3.43
2022-08-20T05:45:43.897Z,3.47
2022-08-20T05:48:13.151Z,3.80
2022-08-20T05:50:42.369Z,3.40
2022-08-20T05:53:15.807Z,3.97
2022-08-20T05:55:45.778Z,3.40
2022-08-20T05:58:17.054Z,4.10
2022-08-20T06:00:46.863Z,3.60
2022-08-20T06:03:32.891Z,3.80
2022-08-20T06:06:02.834Z,3.97
2022-08-20T06:08:31.145Z,3.67
2022-08-20T06:10:59.678Z,3.40
2022-08-20T06:13:29.152Z,3.87
2022-08-20T06:15:58.933Z,3.97
2022-08-20T06:18:28.855Z,4.10
2022-08-20T06:20:57.731Z,3.73
2022-08-20T06:23:26.456Z,3.77
2022-08-20T06:25:54.949Z,3.80
2022-08-20T06:28:23.637Z,4.37
2022-08-20T06:30:52.115Z,3.50
2022-08-20T06:33:22.366Z,3.50
2022-08-20T06:35:51.025Z,4.93
2022-08-20T06:38:19.348Z,4.43
2022-08-20T06:40:47.724Z,4.50
2022-08-20T06:43:15.989Z,4.27
2022-08-20T06:45:45.730Z,4.07
2022-08-20T06:48:15.520Z,4.53
2022-08-20T06:50:47.731Z,4.50
2022-08-20T06:53:17.836Z,4.57
2022-08-20T06:55:48.557Z,3.97
2022-08-20T06:58:35.643Z,4.43
2022-08-20T07:01:10.585Z,3.83
2022-08-20T07:03:54.132Z,4.80
2022-08-20T07:06:25.157Z,4.90
2022-08-20T07:08:53.504Z,5.13
2022-08-20T07:11:27.329Z,4.10
2022-08-20T07:13:57.056Z,4.47
2022-08-20T07:16:25.754Z,4.77
2022-08-20T07:18:54.048Z,4.67
2022-08-20T07:21:22.396Z,5.00
2022-08-20T07:23:55.730Z,4.03
2022-08-20T07:26:24.617Z,4.37
2022-08-20T07:28:53.490Z,4.47
2022-08-20T07:31:39.485Z,4.30
2022-08-20T07:34:11.742Z,4.70
2022-08-20T07:36:40.543Z,4.33
2022-08-20T07:39:10.314Z,4.13
2022-08-20T07:41:43.528Z,5.07
2022-08-20T07:44:21.788Z,4.37
2022-08-20T07:47:00.450Z,4.43
2022-08-20T07:49:28.889Z,4.87
2022-08-20T07:51:57.260Z,4.83
2022-08-20T07:54:30.422Z,4.57
2022-08-20T07:57:02.612Z,4.73
2022-08-20T07:59:31.091Z,4.80
2022-08-20T08:01:59.652Z,4.90
2022-08-20T08:04:28.056Z,5.10
2022-08-20T08:07:00.196Z,5.10
2022-08-20T08:09:39.667Z,5.40
2022-08-20T08:12:09.456Z,5.20
2022-08-20T08:15:02.139Z,5.43
2022-08-20T08:17:31.847Z,4.70
2022-08-20T08:20:00.381Z,4.80
2022-08-20T08:22:32.935Z,5.10
2022-08-20T08:25:02.811Z,4.80
2022-08-20T08:27:32.706Z,5.43
2022-08-20T08:30:01.299Z,5.00
2022-08-20T08:32:32.401Z,4.93
2022-08-20T08:35:00.749Z,5.50
2022-08-20T08:37:30.992Z,5.27
2022-08-20T08:39:59.637Z,4.90
2022-08-20T08:42:42.593Z,5.20
2022-08-20T08:45:11.890Z,5.10
2022-08-20T08:48:06.621Z,4.90
2022-08-20T08:50:54.152Z,5.40
2022-08-20T08:53:25.722Z,5.50
2022-08-20T08:55:54.240Z,5.20
2022-08-20T08:58:23.834Z,5.43
2022-08-20T09:00:56.101Z,5.03
2022-08-20T09:03:28.182Z,6.00
2022-08-20T09:05:58.673Z,5.57
2022-08-20T09:08:28.557Z,5.77
2022-08-20T09:10:56.856Z,6.10
2022-08-20T09:13:28.189Z,5.70
2022-08-20T09:15:56.731Z,5.90
2022-08-20T09:18:25.028Z,5.40
2022-08-20T09:20:53.469Z,6.30
2022-08-20T09:23:21.814Z,5.80
2022-08-20T09:25:50.266Z,5.73
2022-08-20T09:28:18.898Z,6.20
2022-08-20T09:30:48.691Z,6.60
2022-08-20T09:33:17.326Z,6.37
2022-08-20T09:35:46.757Z,5.73
2022-08-20T09:38:15.162Z,5.67
2022-08-20T09:40:44.640Z,5.93
2022-08-20T09:43:13.084Z,6.00
2022-08-20T09:45:41.340Z,5.73
2022-08-20T09:48:11.026Z,5.93
2022-08-20T09:50:39.950Z,6.23
2022-08-20T09:53:08.206Z,5.97
2022-08-20T09:55:37.858Z,6.43
2022-08-20T09:58:12.633Z,5.90
2022-08-20T10:00:41.323Z,6.20
2022-08-20T10:03:10.979Z,5.70
2022-08-20T10:05:39.297Z,5.53
2022-08-20T10:08:08.499Z,6.00
2022-08-20T10:10:36.779Z,5.80
2022-08-20T10:13:05.767Z,5.87
2022-08-20T10:15:34.035Z,5.90
2022-08-20T10:18:05.688Z,6.33
2022-08-20T10:20:35.779Z,6.30
2022-08-20T10:23:04.529Z,6.20
2022-08-20T10:25:32.878Z,5.83
2022-08-20T10:28:01.047Z,6.00
2022-08-20T10:30:29.340Z,6.53
2022-08-20T10:32:57.646Z,5.83
2022-08-20T10:35:26.744Z,6.47
2022-08-20T10:37:56.683Z,6.50
2022-08-20T10:40:25.117Z,7.03
2022-08-20T10:42:53.384Z,6.57
2022-08-20T10:45:21.687Z,6.27
2022-08-20T10:47:49.925Z,6.43
2022-08-20T10:50:20.174Z,6.77
2022-08-20T10:52:48.598Z,6.53
2022-08-20T10:55:18.297Z,6.63
2022-08-20T10:57:46.554Z,6.23
2022-08-20T11:00:15.221Z,7.00
2022-08-20T11:02:46.950Z,7.53
2022-08-20T11:05:15.192Z,6.70
2022-08-20T11:07:55.484Z,7.40
2022-08-20T11:10:26.371Z,8.23
2022-08-20T11:12:54.697Z,7.43
2022-08-20T11:15:23.183Z,8.00
2022-08-20T11:17:52.238Z,8.00
2022-08-20T11:20:21.527Z,8.27
2022-08-20T11:22:49.746Z,8.80
2022-08-20T11:25:18.289Z,8.30
2022-08-20T11:27:49.302Z,8.73
2022-08-20T11:30:21.741Z,8.37
2022-08-20T11:32:49.969Z,7.83
2022-08-20T11:35:41.605Z,8.03
2022-08-20T11:38:07.258Z,8.50
2022-08-20T11:40:36.232Z,8.73
2022-08-20T11:43:15.122Z,8.50
2022-08-20T11:45:44.519Z,8.33
2022-08-20T11:48:12.700Z,8.37
2022-08-20T11:50:41.088Z,8.03
2022-08-20T11:53:09.396Z,7.87
2022-08-20T11:55:38.699Z,7.50
2022-08-20T11:58:11.011Z,7.60
2022-08-20T12:00:39.410Z,8.27
2022-08-20T12:03:09.237Z,7.87
2022-08-20T12:05:38.114Z,8.30
2022-08-20T12:08:06.814Z,7.73
2022-08-20T12:10:45.896Z,8.50
2022-08-20T12:13:18.673Z,8.20
2022-08-20T12:15:50.351Z,7.93
2022-08-20T12:18:18.958Z,8.20
2022-08-20T12:20:47.230Z,7.83
2022-08-20T12:23:19.067Z,7.83
2022-08-20T12:25:47.804Z,7.33
2022-08-20T12:28:16.256Z,8.33
2022-08-20T12:30:48.709Z,8.33
2022-08-20T12:33:16.993Z,8.17
2022-08-20T12:35:45.261Z,7.30
2022-08-20T12:38:40.660Z,7.50
2022-08-20T12:41:08.928Z,7.83
2022-08-20T12:43:37.278Z,8.27
2022-08-20T12:46:07.179Z,8.07
2022-08-20T12:48:35.403Z,8.30
2022-08-20T12:51:03.657Z,8.13
2022-08-20T12:53:41.714Z,8.37
2022-08-20T12:56:13.172Z,9.47
2022-08-20T12:58:41.556Z,9.13
2022-08-20T13:01:13.381Z,9.27
2022-08-20T13:03:49.182Z,9.00
2022-08-20T13:06:20.395Z,8.83
2022-08-20T13:08:51.045Z,9.27
2022-08-20T13:11:19.419Z,8.70
2022-08-20T13:13:56.925Z,9.67
2022-08-20T13:16:28.282Z,9.67
2022-08-20T13:18:56.564Z,9.50
2022-08-20T13:21:31.874Z,9.23
2022-08-20T13:24:03.222Z,9.47
2022-08-20T13:26:31.664Z,9.57
2022-08-20T13:28:59.989Z,9.83
2022-08-20T13:31:30.422Z,9.93
2022-08-20T13:34:00.096Z,9.80
2022-08-20T13:36:28.372Z,9.43
2022-08-20T13:38:56.737Z,10.03
2022-08-20T13:41:24.943Z,9.70
2022-08-20T13:43:53.185Z,8.90
2022-08-20T13:46:21.927Z,9.30
2022-08-20T13:48:52.294Z,9.63
2022-08-20T13:51:21.713Z,9.30
2022-08-20T13:53:50.062Z,8.90
2022-08-20T13:56:18.333Z,9.27
2022-08-20T13:58:46.676Z,9.20
2022-08-20T14:02:09.217Z,9.17
2022-08-20T14:04:39.810Z,9.47
2022-08-20T14:07:12.392Z,9.23
2022-08-20T14:09:40.901Z,8.47
2022-08-20T14:12:09.594Z,8.43
2022-08-20T14:14:44.058Z,8.17
2022-08-20T14:17:19.542Z,9.30
2022-08-20T14:19:57.797Z,8.20
2022-08-20T14:22:32.659Z,6.90
2022-08-20T14:25:04.252Z,6.87
2022-08-20T14:27:40.564Z,7.20
2022-08-20T14:30:17.787Z,6.93
2022-08-20T14:35:40.783Z,5.87
2022-08-20T14:38:09.220Z,6.10
2022-08-20T14:40:38.769Z,4.63
2022-08-20T14:43:07.105Z,4.03
2022-08-20T14:45:35.489Z,3.90
2022-08-20T14:48:04.089Z,5.10
2022-08-20T14:50:33.496Z,5.77
2022-08-20T14:53:03.789Z,5.40
2022-08-20T14:55:36.109Z,6.00
2022-08-20T14:58:08.436Z,5.93
2022-08-20T15:00:36.761Z,5.70
2022-08-20T15:03:05.421Z,5.90
2022-08-20T15:05:39.345Z,5.83
2022-08-20T15:08:12.560Z,5.13
2022-08-20T15:10:43.697Z,4.93
2022-08-20T15:13:12.237Z,4.97
2022-08-20T15:15:40.806Z,4.30
2022-08-20T15:18:09.366Z,4.13
2022-08-20T15:20:37.694Z,4.43
2022-08-20T15:23:09.978Z,4.70
2022-08-20T15:25:41.551Z,4.53
2022-08-20T15:28:10.486Z,4.00
2022-08-20T15:30:39.170Z,4.87
2022-08-20T15:33:11.022Z,4.57
2022-08-20T15:35:39.760Z,4.37
2022-08-20T15:38:08.088Z,4.40
2022-08-20T15:40:39.159Z,4.73
2022-08-20T15:43:07.725Z,4.40
2022-08-20T15:45:36.312Z,5.63
2022-08-20T15:48:10.209Z,5.50
2022-08-20T15:50:57.421Z,5.30
2022-08-20T15:53:31.022Z,5.40
2022-08-20T15:56:04.710Z,5.53
2022-08-20T15:58:38.289Z,5.70
2022-08-20T16:01:25.272Z,5.50
2022-08-20T16:04:27.789Z,5.07
2022-08-20T16:06:58.397Z,4.33
2022-08-20T16:09:35.984Z,4.20
2022-08-20T16:12:11.615Z,4.10
2022-08-20T16:14:41.243Z,4.07
2022-08-20T16:17:11.333Z,4.00
2022-08-20T16:19:46.135Z,5.03
2022-08-20T16:22:15.363Z,4.73
2022-08-20T16:24:51.922Z,4.60
2022-08-20T16:27:47.629Z,4.93
2022-08-20T16:30:22.722Z,4.40
2022-08-20T16:33:11.819Z,5.17
2022-08-20T16:35:50.413Z,4.10
2022-08-20T16:38:23.705Z,4.83
2022-08-20T16:40:55.577Z,4.63
2022-08-20T16:43:33.718Z,5.53
2022-08-20T16:46:05.056Z,5.03
2022-08-20T16:48:36.894Z,4.50
2022-08-20T16:51:07.938Z,5.17
2022-08-20T16:53:36.522Z,5.10
2022-08-20T16:56:11.363Z,4.93
2022-08-20T16:58:50.982Z,5.53
2022-08-20T17:01:25.354Z,5.37
2022-08-20T17:04:01.583Z,5.70
2022-08-20T17:06:37.339Z,5.67
2022-08-20T17:09:18.976Z,5.53
2022-08-20T17:12:19.857Z,5.40
2022-08-20T17:14:59.669Z,5.80
2022-08-20T17:17:29.979Z,5.77
2022-08-20T17:19:59.213Z,5.50
2022-08-20T17:22:28.091Z,5.70
2022-08-20T17:24:56.722Z,5.30
2022-08-20T17:27:38.305Z,5.53
2022-08-20T17:30:15.142Z,5.83
2022-08-20T17:32:57.767Z,5.90
2022-08-20T17:35:31.190Z,5.60
2022-08-20T17:38:00.059Z,5.67
2022-08-20T17:40:31.176Z,5.63
2022-08-20T17:43:01.654Z,5.57
2022-08-20T17:45:33.332Z,5.63
2022-08-20T17:48:05.158Z,5.87
2022-08-20T17:50:37.801Z,5.90
2022-08-20T17:53:14.435Z,6.10
2022-08-20T17:55:43.002Z,6.53
2022-08-20T17:58:12.945Z,6.10
2022-08-20T18:00:42.899Z,6.13
2022-08-20T18:03:17.183Z,6.60
2022-08-20T18:05:46.143Z,5.80
2022-08-20T18:08:22.320Z,6.93
2022-08-20T18:10:57.074Z,6.73
2022-08-20T18:13:36.258Z,6.93
2022-08-20T18:16:18.038Z,6.63
2022-08-20T18:18:57.007Z,7.30
2022-08-20T18:21:53.817Z,7.70
2022-08-20T18:24:25.057Z,6.67
2022-08-20T18:26:54.504Z,7.10
2022-08-20T18:29:27.549Z,7.27
2022-08-20T18:31:59.385Z,7.60
2022-08-20T18:34:37.651Z,7.37
2022-08-20T18:37:07.366Z,6.90
2022-08-20T18:39:36.541Z,7.17
2022-08-20T18:42:07.036Z,7.17
2022-08-20T18:44:43.869Z,7.47
2022-08-20T18:47:23.038Z,7.90
2022-08-20T18:50:16.158Z,7.43
2022-08-20T18:52:46.706Z,7.43
2022-08-20T18:55:29.796Z,8.23
2022-08-20T18:58:00.586Z,7.47
2022-08-20T19:00:34.763Z,7.50
2022-08-20T19:03:20.807Z,8.30
2022-08-20T19:06:05.532Z,7.10
2022-08-20T19:08:40.711Z,7.87
2022-08-20T19:11:19.582Z,7.43
2022-08-20T19:14:01.006Z,8.10
2022-08-20T19:16:33.514Z,8.70
2022-08-20T19:19:03.550Z,7.63
2022-08-20T19:21:35.479Z,7.63
2022-08-20T19:24:05.253Z,8.30
2022-08-20T19:26:34.521Z,7.77
2022-08-20T19:29:08.170Z,7.97
2022-08-20T19:31:36.555Z,8.20
2022-08-20T19:34:14.994Z,7.73
2022-08-20T19:36:54.669Z,8.53
2022-08-20T19:39:25.592Z,8.90
2022-08-20T19:41:58.659Z,8.97
2022-08-20T19:44:31.443Z,8.87
2022-08-20T19:46:59.790Z,8.13
2022-08-20T19:49:31.514Z,8.17
2022-08-20T19:52:07.454Z,8.77
2022-08-20T19:54:46.767Z,8.43
2022-08-20T19:57:15.870Z,8.83
2022-08-20T19:59:55.747Z,8.60
2022-08-20T20:02:25.229Z,8.73
2022-08-20T20:04:57.797Z,8.90
2022-08-20T20:07:27.514Z,8.77
2022-08-20T20:09:58.294Z,8.50
2022-08-20T20:12:26.612Z,8.87
2022-08-20T20:14:56.319Z,8.77
2022-08-20T20:17:31.366Z,8.50
2022-08-20T20:20:24.717Z,8.30
2022-08-20T20:22:54.597Z,8.60
2022-08-20T20:25:24.400Z,8.17
2022-08-20T20:27:54.578Z,8.27
2022-08-20T20:30:25.265Z,7.63
2022-08-20T20:32:53.623Z,7.83
2022-08-20T20:35:29.390Z,7.80
2022-08-20T20:38:00.070Z,7.97
2022-08-20T20:40:30.911Z,7.50
2022-08-20T20:43:05.148Z,7.90
2022-08-20T20:45:35.703Z,7.50
2022-08-20T20:48:13.355Z,8.33
2022-08-20T20:50:43.050Z,7.77
2022-08-20T20:53:11.509Z,8.17
2022-08-20T20:55:40.048Z,8.03
2022-08-20T20:58:08.339Z,8.07
2022-08-20T21:00:36.628Z,8.57
2022-08-20T21:03:05.307Z,10.40
2022-08-20T21:05:33.653Z,11.23
2022-08-20T21:08:04.263Z,12.23
2022-08-20T21:10:34.859Z,11.23
2022-08-20T21:13:03.561Z,11.90
2022-08-20T21:15:32.005Z,11.03
2022-08-20T21:18:03.537Z,10.77
2022-08-20T21:20:31.799Z,10.50
2022-08-20T21:23:00.113Z,10.10
2022-08-20T21:25:30.348Z,9.60
2022-08-20T21:27:58.535Z,9.50
2022-08-20T21:30:31.214Z,10.00
2022-08-20T21:32:59.745Z,9.27
2022-08-20T21:35:28.129Z,10.33
2022-08-20T21:37:56.395Z,10.60
2022-08-20T21:40:28.308Z,9.97
2022-08-20T21:42:58.602Z,10.80
2022-08-20T21:45:28.533Z,10.00
2022-08-20T21:47:57.336Z,10.47
2022-08-20T21:50:25.926Z,10.23
2022-08-20T21:53:11.361Z,10.80
2022-08-20T21:55:41.155Z,10.10
2022-08-20T21:58:11.385Z,10.30
2022-08-20T22:00:52.559Z,10.80
2022-08-20T22:03:21.479Z,11.13
2022-08-20T22:05:49.864Z,11.10
2022-08-20T22:08:18.152Z,10.33
2022-08-20T22:10:46.566Z,10.00
2022-08-20T22:13:16.740Z,10.90
2022-08-20T22:15:45.244Z,11.23
2022-08-20T22:18:13.652Z,11.60
2022-08-20T22:20:42.023Z,11.07
2022-08-20T22:23:10.278Z,11.50
2022-08-20T22:25:38.491Z,11.60
2022-08-20T22:28:07.142Z,11.43
2022-08-20T22:30:40.550Z,12.90
2022-08-20T22:33:12.051Z,12.53
2022-08-20T22:35:41.848Z,12.43
2022-08-20T22:38:10.066Z,12.13
2022-08-20T22:40:38.724Z,13.63
2022-08-20T22:43:07.057Z,12.57
2022-08-20T22:45:36.969Z,13.17
2022-08-20T22:48:05.821Z,13.17
2022-08-20T22:50:34.147Z,13.83
2022-08-20T22:53:02.434Z,14.37
2022-08-20T22:55:33.150Z,13.57
2022-08-20T22:58:01.465Z,14.57
2022-08-20T23:00:29.843Z,14.17
2022-08-20T23:02:59.868Z,14.53
2022-08-20T23:05:29.516Z,14.37
2022-08-20T23:07:58.930Z,14.63
2022-08-20T23:10:27.938Z,14.93
2022-08-20T23:12:57.199Z,14.10
2022-08-20T23:15:25.660Z,14.10
2022-08-20T23:17:54.047Z,13.00
2022-08-20T23:20:23.889Z,12.53
2022-08-20T23:22:54.650Z,12.77
2022-08-20T23:25:23.202Z,12.70
2022-08-20T23:27:53.301Z,13.23
2022-08-20T23:30:21.747Z,12.93
2022-08-20T23:32:49.981Z,13.90
2022-08-20T23:35:18.677Z,12.57
2022-08-20T23:37:50.919Z,13.13
2022-08-20T23:40:26.907Z,12.77
2022-08-20T23:42:56.883Z,12.60
2022-08-20T23:45:25.267Z,13.80
2022-08-20T23:47:53.513Z,12.80
2022-08-20T23:50:24.222Z,13.43
2022-08-20T23:52:54.055Z,13.40
2022-08-20T23:55:22.927Z,12.63
2022-08-20T23:57:51.206Z,13.53
